createdAt,value
2018-03-22T00:00:41.511Z,84.43
2018-03-22T00:03:10.419Z,86.23
2018-03-22T00:05:39.460Z,85.93
2018-03-22T00:08:08.486Z,85.40
2018-03-22T00:10:37.534Z,85.92
2018-03-22T00:13:06.402Z,85.23
2018-03-22T00:15:35.472Z,85.59
2018-03-22T00:18:04.627Z,86.68
2018-03-22T00:20:33.510Z,86.17
2018-03-22T00:23:02.650Z,86.58
2018-03-22T00:25:31.698Z,86.51
2018-03-22T00:28:00.937Z,85.22
2018-03-22T00:30:29.996Z,84.72
2018-03-22T00:32:58.887Z,85.34
2018-03-22T00:35:28.939Z,86.03
2018-03-22T00:37:57.994Z,84.74
2018-03-22T00:40:26.994Z,84.84
2018-03-22T00:42:55.980Z,84.88
2018-03-22T00:45:24.970Z,84.20
2018-03-22T00:47:53.869Z,85.12
2018-03-22T00:50:22.837Z,82.83
2018-03-22T00:52:52.025Z,85.22
2018-03-22T00:55:20.841Z,83.93
2018-03-22T00:57:49.866Z,84.24
2018-03-22T01:00:18.796Z,84.54
2018-03-22T01:02:47.645Z,83.78
2018-03-22T01:05:16.699Z,83.91
2018-03-22T01:07:45.966Z,84.00
2018-03-22T01:10:14.826Z,84.13
2018-03-22T01:12:43.698Z,84.81
2018-03-22T01:15:12.818Z,85.19
2018-03-22T01:17:41.662Z,86.63
2018-03-22T01:20:10.615Z,86.58
2018-03-22T01:22:39.561Z,84.89
2018-03-22T01:25:08.583Z,86.58
2018-03-22T01:27:37.544Z,86.26
2018-03-22T01:33:08.614Z,87.86
2018-03-22T01:35:37.657Z,87.37
2018-03-22T01:38:06.704Z,86.23
2018-03-22T01:40:35.693Z,85.33
2018-03-22T01:43:04.803Z,85.17
2018-03-22T01:45:33.833Z,85.24
2018-03-22T01:48:02.638Z,87.06
2018-03-22T01:50:31.609Z,86.69
2018-03-22T01:53:11.984Z,86.23
2018-03-22T01:55:41.121Z,85.95
2018-03-22T01:58:10.172Z,85.99
2018-03-22T02:00:39.268Z,85.95
2018-03-22T02:03:08.183Z,85.56
2018-03-22T02:05:37.301Z,86.03
2018-03-22T02:08:06.343Z,88.42
2018-03-22T02:10:35.417Z,89.53
2018-03-22T02:13:04.401Z,88.90
2018-03-22T02:15:33.642Z,87.24
2018-03-22T02:18:02.691Z,88.52
2018-03-22T02:20:31.735Z,89.32
2018-03-22T02:23:00.910Z,89.86
2018-03-22T02:25:29.971Z,90.79
2018-03-22T02:27:59.003Z,90.16
2018-03-22T02:30:28.097Z,91.09
2018-03-22T02:32:57.249Z,91.81
2018-03-22T02:35:26.255Z,92.71
2018-03-22T02:37:55.389Z,92.24
2018-03-22T02:40:24.590Z,91.53
2018-03-22T02:42:53.645Z,92.82
2018-03-22T02:45:22.791Z,93.73
2018-03-22T02:47:51.822Z,94.15
2018-03-22T02:50:20.732Z,93.86
2018-03-22T02:52:49.957Z,94.68
2018-03-22T02:55:18.846Z,95.15
2018-03-22T02:57:47.829Z,95.56
2018-03-22T03:00:16.723Z,94.73
2018-03-22T03:02:45.989Z,94.77
2018-03-22T03:05:15.083Z,95.42
2018-03-22T03:07:44.322Z,95.47
2018-03-22T03:10:13.277Z,95.54
2018-03-22T03:12:42.107Z,95.90
2018-03-22T03:15:11.126Z,95.63
2018-03-22T03:17:40.070Z,93.06
2018-03-22T03:20:09.199Z,94.52
2018-03-22T03:22:38.182Z,92.66
2018-03-22T03:25:07.246Z,93.09
2018-03-22T03:27:36.161Z,94.91
2018-03-22T03:30:05.587Z,95.68
2018-03-22T03:32:34.726Z,92.60
2018-03-22T03:35:04.170Z,93.63
2018-03-22T03:37:33.258Z,95.03
2018-03-22T03:40:02.437Z,93.89
2018-03-22T03:42:31.526Z,94.94
2018-03-22T03:45:00.531Z,93.08
2018-03-22T03:47:29.551Z,93.98
2018-03-22T03:49:58.697Z,93.45
2018-03-22T03:52:27.589Z,94.43
2018-03-22T03:54:56.626Z,95.80
2018-03-22T03:57:25.667Z,96.33
2018-03-22T03:59:54.883Z,95.96
2018-03-22T04:02:23.893Z,95.58
2018-03-22T04:04:52.801Z,95.18
2018-03-22T04:07:21.711Z,95.24
2018-03-22T04:09:50.793Z,95.54
2018-03-22T04:12:19.846Z,94.87
2018-03-22T04:14:49.154Z,91.87
2018-03-22T04:17:18.144Z,93.32
2018-03-22T04:19:46.964Z,91.82
2018-03-22T04:22:15.895Z,92.32
2018-03-22T04:24:44.869Z,92.48
2018-03-22T04:27:13.917Z,93.60
2018-03-22T04:29:43.062Z,93.21
2018-03-22T04:32:12.002Z,92.84
2018-03-22T04:34:40.885Z,93.63
2018-03-22T04:37:09.982Z,93.39
2018-03-22T04:39:39.022Z,92.24
2018-03-22T04:42:08.478Z,93.12
2018-03-22T04:44:37.487Z,93.58
2018-03-22T04:47:06.342Z,92.75
2018-03-22T04:49:35.465Z,91.79
2018-03-22T04:52:04.657Z,93.25
2018-03-22T04:54:33.912Z,93.85
2018-03-22T04:57:02.950Z,93.80
2018-03-22T04:59:32.919Z,93.91
2018-03-22T05:02:02.001Z,92.12
2018-03-22T05:04:30.941Z,93.28
2018-03-22T05:06:59.907Z,93.92
2018-03-22T05:09:28.865Z,92.43
2018-03-22T05:11:57.844Z,93.31
2018-03-22T05:14:27.333Z,94.02
2018-03-22T05:16:56.487Z,93.40
2018-03-22T05:19:25.525Z,93.08
2018-03-22T05:21:54.725Z,92.23
2018-03-22T05:24:24.085Z,92.50
2018-03-22T05:26:53.321Z,91.67
2018-03-22T05:29:22.153Z,93.04
2018-03-22T05:31:51.291Z,92.00
2018-03-22T05:34:20.367Z,93.45
2018-03-22T05:36:49.305Z,93.69
2018-03-22T05:39:18.474Z,93.47
2018-03-22T05:41:47.598Z,93.42
2018-03-22T05:44:16.491Z,91.98
2018-03-22T05:46:45.503Z,93.38
2018-03-22T05:49:14.778Z,93.41
2018-03-22T05:51:43.829Z,92.91
2018-03-22T05:54:12.909Z,93.37
2018-03-22T05:56:41.966Z,93.12
2018-03-22T05:59:10.873Z,91.96
2018-03-22T06:01:40.043Z,91.46
2018-03-22T06:04:09.145Z,91.72
2018-03-22T06:06:38.181Z,93.79
2018-03-22T06:09:07.397Z,94.54
2018-03-22T06:11:36.639Z,93.44
2018-03-22T06:14:05.680Z,95.14
2018-03-22T06:16:34.639Z,94.67
2018-03-22T06:19:03.613Z,94.77
2018-03-22T06:21:32.723Z,94.23
2018-03-22T06:24:01.849Z,94.78
2018-03-22T06:26:31.781Z,94.23
2018-03-22T06:29:00.617Z,94.99
2018-03-22T06:31:29.768Z,93.72
2018-03-22T06:33:58.809Z,93.55
2018-03-22T06:36:27.911Z,94.77
2018-03-22T06:38:56.972Z,94.48
2018-03-22T06:41:25.879Z,94.29
2018-03-22T06:43:54.820Z,94.48
2018-03-22T06:46:23.843Z,94.04
2018-03-22T06:48:52.838Z,95.34
2018-03-22T06:51:21.781Z,95.96
2018-03-22T06:53:50.766Z,94.29
2018-03-22T06:56:19.784Z,94.45
2018-03-22T06:58:48.733Z,94.74
2018-03-22T07:01:17.991Z,94.79
2018-03-22T07:03:47.189Z,95.26
2018-03-22T07:06:16.182Z,94.74
2018-03-22T07:08:45.178Z,95.91
2018-03-22T07:11:14.063Z,95.96
2018-03-22T07:13:43.002Z,96.22
2018-03-22T07:16:11.972Z,95.33
2018-03-22T07:18:40.815Z,95.52
2018-03-22T07:21:10.086Z,95.95
2018-03-22T07:23:39.013Z,95.61
2018-03-22T07:26:08.109Z,96.36
2018-03-22T07:28:37.232Z,94.60
2018-03-22T07:31:06.209Z,96.02
2018-03-22T07:33:35.367Z,95.67
2018-03-22T07:36:04.353Z,95.81
2018-03-22T07:38:33.389Z,95.51
2018-03-22T07:41:02.251Z,95.34
2018-03-22T07:43:36.797Z,95.14
2018-03-22T07:46:05.853Z,95.21
2018-03-22T07:48:34.952Z,95.80
2018-03-22T07:51:03.889Z,96.04
2018-03-22T07:53:33.007Z,95.79
2018-03-22T07:56:02.065Z,95.93
2018-03-22T07:58:31.391Z,96.27
2018-03-22T08:01:00.306Z,96.25
2018-03-22T08:03:29.214Z,95.90
2018-03-22T08:05:58.473Z,95.31
2018-03-22T08:08:27.517Z,95.32
2018-03-22T08:10:56.622Z,95.40
2018-03-22T08:13:25.758Z,94.86
2018-03-22T08:15:54.760Z,95.04
2018-03-22T08:18:23.904Z,95.02
2018-03-22T08:20:53.073Z,95.18
2018-03-22T08:23:22.130Z,95.48
2018-03-22T08:25:51.134Z,95.16
2018-03-22T08:28:20.525Z,95.64
2018-03-22T08:30:49.622Z,96.04
2018-03-22T08:33:18.706Z,96.11
2018-03-22T08:35:47.913Z,96.30
2018-03-22T08:38:16.916Z,96.50
2018-03-22T08:40:46.082Z,95.64
2018-03-22T08:43:15.202Z,95.66
2018-03-22T08:45:44.229Z,94.62
2018-03-22T08:48:13.406Z,95.16
2018-03-22T08:50:42.701Z,95.28
2018-03-22T08:53:11.942Z,95.70
2018-03-22T08:55:41.145Z,95.42
2018-03-22T08:58:10.381Z,95.32
2018-03-22T09:00:39.689Z,94.54
2018-03-22T09:03:08.845Z,95.38
2018-03-22T09:05:38.092Z,95.65
2018-03-22T09:08:07.315Z,95.30
2018-03-22T09:10:36.762Z,95.20
2018-03-22T09:13:06.185Z,95.43
2018-03-22T09:15:35.338Z,95.64
2018-03-22T09:18:04.801Z,96.44
2018-03-22T09:20:34.082Z,96.04
2018-03-22T09:23:03.248Z,96.01
2018-03-22T09:25:32.309Z,96.42
2018-03-22T09:28:01.587Z,96.07
2018-03-22T09:30:30.702Z,96.33
2018-03-22T09:32:59.830Z,95.80
2018-03-22T09:35:29.289Z,96.34
2018-03-22T09:37:58.692Z,96.49
2018-03-22T09:40:27.825Z,96.64
2018-03-22T09:42:56.905Z,96.65
2018-03-22T09:45:26.000Z,96.34
2018-03-22T09:47:55.238Z,96.67
2018-03-22T09:50:24.648Z,96.94
2018-03-22T09:52:53.856Z,96.82
2018-03-22T09:55:23.170Z,96.92
2018-03-22T09:57:52.302Z,95.88
2018-03-22T10:00:21.574Z,95.28
2018-03-22T10:02:50.878Z,94.81
2018-03-22T10:05:20.118Z,94.80
2018-03-22T10:07:49.261Z,94.95
2018-03-22T10:10:18.423Z,95.59
2018-03-22T10:12:47.615Z,96.19
2018-03-22T10:15:16.845Z,96.47
2018-03-22T10:17:45.918Z,97.05
2018-03-22T10:20:15.199Z,96.08
2018-03-22T10:22:44.314Z,96.32
2018-03-22T10:25:13.602Z,95.85
2018-03-22T10:27:42.601Z,95.51
2018-03-22T10:30:11.846Z,96.05
2018-03-22T10:32:40.914Z,96.02
2018-03-22T10:35:10.418Z,95.86
2018-03-22T10:37:39.617Z,95.69
2018-03-22T10:40:08.767Z,93.65
2018-03-22T10:42:38.010Z,93.52
2018-03-22T10:45:07.169Z,94.37
2018-03-22T10:47:36.342Z,93.03
2018-03-22T10:50:05.677Z,93.45
2018-03-22T10:52:35.017Z,94.76
2018-03-22T10:55:04.225Z,91.68
2018-03-22T10:57:33.271Z,93.84
2018-03-22T11:00:02.519Z,93.35
2018-03-22T11:02:37.742Z,93.69
2018-03-22T11:05:06.848Z,93.48
2018-03-22T11:07:35.987Z,92.95
2018-03-22T11:10:05.205Z,92.59
2018-03-22T11:12:34.373Z,94.77
2018-03-22T11:15:03.706Z,93.53
2018-03-22T11:17:32.897Z,94.69
2018-03-22T11:20:02.146Z,93.14
2018-03-22T11:22:31.153Z,93.53
2018-03-22T11:25:00.243Z,94.04
2018-03-22T11:27:29.500Z,94.21
2018-03-22T11:29:58.591Z,92.78
2018-03-22T11:32:28.024Z,92.32
2018-03-22T11:34:57.393Z,91.36
2018-03-22T11:37:26.491Z,92.72
2018-03-22T11:39:55.533Z,92.09
2018-03-22T11:42:24.791Z,91.68
2018-03-22T11:44:53.881Z,90.57
2018-03-22T11:47:23.075Z,91.61
2018-03-22T11:49:52.393Z,90.74
2018-03-22T11:52:21.565Z,91.47
2018-03-22T11:54:51.028Z,90.19
2018-03-22T11:57:20.284Z,88.98
2018-03-22T11:59:49.389Z,90.69
2018-03-22T12:02:18.653Z,90.22
2018-03-22T12:04:47.925Z,90.26
2018-03-22T12:07:17.054Z,89.55
2018-03-22T12:09:46.393Z,88.84
2018-03-22T12:12:15.478Z,89.13
2018-03-22T12:14:44.486Z,88.30
2018-03-22T12:17:13.601Z,89.04
2018-03-22T12:19:42.846Z,89.14
2018-03-22T12:22:11.898Z,89.58
2018-03-22T12:24:40.933Z,88.88
2018-03-22T12:27:10.148Z,88.99
2018-03-22T12:29:39.126Z,88.04
2018-03-22T12:32:08.328Z,90.53
2018-03-22T12:34:37.390Z,89.75
2018-03-22T12:37:06.734Z,89.65
2018-03-22T12:39:35.858Z,88.86
2018-03-22T12:42:04.910Z,89.89
2018-03-22T12:44:34.131Z,90.62
2018-03-22T12:47:03.349Z,88.69
2018-03-22T12:49:32.550Z,90.97
2018-03-22T12:52:01.550Z,90.05
2018-03-22T12:54:30.693Z,91.18
2018-03-22T12:56:59.789Z,91.43
2018-03-22T12:59:28.886Z,91.45
2018-03-22T13:01:58.249Z,90.40
2018-03-22T13:04:27.511Z,90.51
2018-03-22T13:06:56.594Z,91.10
2018-03-22T13:09:26.169Z,91.19
2018-03-22T13:11:55.751Z,90.82
2018-03-22T13:14:25.286Z,90.56
2018-03-22T13:16:54.893Z,89.27
2018-03-22T13:19:24.049Z,88.82
2018-03-22T13:21:53.156Z,90.35
2018-03-22T13:24:22.282Z,88.99
2018-03-22T13:26:51.602Z,90.05
2018-03-22T13:29:20.718Z,90.57
2018-03-22T13:31:49.828Z,91.14
2018-03-22T13:34:18.999Z,90.00
2018-03-22T13:36:48.246Z,90.01
2018-03-22T13:39:17.537Z,89.13
2018-03-22T13:41:46.696Z,90.97
2018-03-22T13:44:16.004Z,89.83
2018-03-22T13:46:45.149Z,90.56
2018-03-22T13:49:14.238Z,89.78
2018-03-22T13:51:43.480Z,89.97
2018-03-22T13:54:12.734Z,89.97
2018-03-22T13:56:41.731Z,90.21
2018-03-22T13:59:10.889Z,89.30
2018-03-22T14:01:40.120Z,88.88
2018-03-22T14:04:09.045Z,90.09
2018-03-22T14:06:38.302Z,90.46
2018-03-22T14:09:07.494Z,91.84
2018-03-22T14:11:36.692Z,90.51
2018-03-22T14:14:05.687Z,90.97
2018-03-22T14:16:34.929Z,91.35
2018-03-22T14:19:04.203Z,92.14
2018-03-22T14:21:33.402Z,92.23
2018-03-22T14:24:02.437Z,91.88
2018-03-22T14:26:31.439Z,91.57
2018-03-22T14:29:00.525Z,90.90
2018-03-22T14:31:29.890Z,92.44
2018-03-22T14:33:58.925Z,92.44
2018-03-22T14:36:28.022Z,94.09
2018-03-22T14:38:57.376Z,94.42
2018-03-22T14:41:26.437Z,94.21
2018-03-22T14:43:55.675Z,95.66
2018-03-22T14:46:25.484Z,95.12
2018-03-22T14:48:55.137Z,95.24
2018-03-22T14:51:24.311Z,95.38
2018-03-22T14:53:53.281Z,94.51
2018-03-22T14:56:22.673Z,95.43
2018-03-22T14:58:51.780Z,95.72
2018-03-22T15:01:20.928Z,95.47
2018-03-22T15:03:50.425Z,95.62
2018-03-22T15:06:20.002Z,94.96
2018-03-22T15:08:49.124Z,95.71
2018-03-22T15:11:18.246Z,96.09
2018-03-22T15:13:47.666Z,94.93
2018-03-22T15:16:16.761Z,95.55
2018-03-22T15:18:45.814Z,96.76
2018-03-22T15:21:15.079Z,95.64
2018-03-22T15:23:44.218Z,95.34
2018-03-22T15:26:13.318Z,96.15
2018-03-22T15:28:42.448Z,95.48
2018-03-22T15:31:11.587Z,95.64
2018-03-22T15:33:40.817Z,94.64
2018-03-22T15:36:10.244Z,95.85
2018-03-22T15:38:39.356Z,95.72
2018-03-22T15:41:08.502Z,95.97
2018-03-22T15:43:37.912Z,96.29
2018-03-22T15:46:07.156Z,96.21
2018-03-22T15:48:36.144Z,96.29
2018-03-22T15:51:05.337Z,94.98
2018-03-22T15:53:34.481Z,95.87
2018-03-22T15:56:03.488Z,95.72
2018-03-22T15:58:32.618Z,96.13
2018-03-22T16:01:01.728Z,95.85
2018-03-22T16:03:31.123Z,96.28
2018-03-22T16:06:00.341Z,95.61
2018-03-22T16:08:29.630Z,94.85
2018-03-22T16:10:58.793Z,95.34
2018-03-22T16:13:27.980Z,96.18
2018-03-22T16:15:57.222Z,96.32
2018-03-22T16:18:26.268Z,96.27
2018-03-22T16:20:55.365Z,95.24
2018-03-22T16:23:24.589Z,95.66
2018-03-22T16:25:53.851Z,96.16
2018-03-22T16:28:22.952Z,95.45
2018-03-22T16:30:51.973Z,96.21
2018-03-22T16:33:21.254Z,96.54
2018-03-22T16:35:50.698Z,95.34
2018-03-22T16:38:19.859Z,95.95
2018-03-22T16:40:48.955Z,94.93
2018-03-22T16:43:18.177Z,94.58
2018-03-22T16:45:47.824Z,95.28
2018-03-22T16:48:17.045Z,96.04
2018-03-22T16:50:46.181Z,95.26
2018-03-22T16:53:15.341Z,96.42
2018-03-22T16:55:44.407Z,96.03
2018-03-22T16:58:13.592Z,96.34
2018-03-22T17:00:42.725Z,96.83
2018-03-22T17:03:12.034Z,96.80
2018-03-22T17:05:41.169Z,96.31
2018-03-22T17:08:10.587Z,97.55
2018-03-22T17:10:39.570Z,97.59
2018-03-22T17:13:08.635Z,97.12
2018-03-22T17:15:37.793Z,96.37
2018-03-22T17:18:06.745Z,96.37
2018-03-22T17:20:35.915Z,96.46
2018-03-22T17:23:04.946Z,96.66
2018-03-22T17:25:33.961Z,97.10
2018-03-22T17:28:02.947Z,96.83
2018-03-22T17:30:31.955Z,96.06
2018-03-22T17:33:01.054Z,96.30
2018-03-22T17:35:30.055Z,96.10
2018-03-22T17:37:59.037Z,96.53
2018-03-22T17:40:28.139Z,96.10
2018-03-22T17:42:57.047Z,96.12
2018-03-22T17:45:26.227Z,96.72
2018-03-22T17:47:55.337Z,97.73
2018-03-22T17:50:24.538Z,96.91
2018-03-22T17:52:53.692Z,97.63
2018-03-22T17:55:22.663Z,97.06
2018-03-22T17:57:51.844Z,96.89
2018-03-22T18:00:20.967Z,97.32
2018-03-22T18:02:49.943Z,96.85
2018-03-22T18:05:18.991Z,96.70
2018-03-22T18:07:48.022Z,96.91
2018-03-22T18:10:17.055Z,96.19
2018-03-22T18:12:46.203Z,97.00
2018-03-22T18:15:15.453Z,97.18
2018-03-22T18:17:44.600Z,97.28
2018-03-22T18:20:13.637Z,96.35
2018-03-22T18:22:42.624Z,97.47
2018-03-22T18:25:11.844Z,97.73
2018-03-22T18:27:40.861Z,97.49
2018-03-22T18:30:09.830Z,97.55
2018-03-22T18:32:38.894Z,97.45
2018-03-22T18:35:07.960Z,97.75
2018-03-22T18:37:36.937Z,97.83
2018-03-22T18:40:06.190Z,97.95
2018-03-22T18:42:35.341Z,97.17
2018-03-22T18:45:04.496Z,98.11
2018-03-22T18:47:33.561Z,97.52
2018-03-22T18:50:02.507Z,96.93
2018-03-22T18:52:31.761Z,97.33
2018-03-22T18:55:00.927Z,97.28
2018-03-22T18:57:29.837Z,97.36
2018-03-22T18:59:58.821Z,97.43
2018-03-22T19:02:28.018Z,97.38
2018-03-22T19:04:56.998Z,97.06
2018-03-22T19:07:26.043Z,97.28
2018-03-22T19:09:55.139Z,97.42
2018-03-22T19:12:24.094Z,97.46
2018-03-22T19:14:53.205Z,97.42
2018-03-22T19:17:22.289Z,97.38
2018-03-22T19:19:51.284Z,97.31
2018-03-22T19:22:20.371Z,96.88
2018-03-22T19:24:49.506Z,96.20
2018-03-22T19:27:18.692Z,96.23
2018-03-22T19:29:47.802Z,96.49
2018-03-22T19:32:16.999Z,96.26
2018-03-22T19:34:46.103Z,96.08
2018-03-22T19:37:15.234Z,95.64
2018-03-22T19:39:44.395Z,96.08
2018-03-22T19:42:13.893Z,95.85
2018-03-22T19:44:43.237Z,95.61
2018-03-22T19:47:12.222Z,95.23
2018-03-22T19:49:41.421Z,95.01
2018-03-22T19:52:10.474Z,94.84
2018-03-22T19:54:39.782Z,95.04
2018-03-22T19:57:08.755Z,94.74
2018-03-22T19:59:37.823Z,94.91
2018-03-22T20:02:07.149Z,94.72
2018-03-22T20:04:36.297Z,94.64
2018-03-22T20:07:05.274Z,94.61
2018-03-22T20:09:34.542Z,94.07
2018-03-22T20:12:03.805Z,94.49
2018-03-22T20:14:33.050Z,94.55
2018-03-22T20:17:02.367Z,94.25
2018-03-22T20:19:31.502Z,94.39
2018-03-22T20:22:00.671Z,94.97
2018-03-22T20:24:29.869Z,93.97
2018-03-22T20:26:58.961Z,93.91
2018-03-22T20:29:28.140Z,93.38
2018-03-22T20:31:57.325Z,93.30
2018-03-22T20:34:26.445Z,93.29
2018-03-22T20:36:55.423Z,94.15
2018-03-22T20:39:24.731Z,93.85
2018-03-22T20:41:53.750Z,93.74
2018-03-22T20:44:22.947Z,92.96
2018-03-22T20:46:52.239Z,93.87
2018-03-22T20:49:21.209Z,94.41
2018-03-22T20:51:50.300Z,94.08
2018-03-22T20:54:19.495Z,93.54
2018-03-22T20:56:48.626Z,92.84
2018-03-22T20:59:17.801Z,91.88
2018-03-22T21:01:46.907Z,91.51
2018-03-22T21:04:15.937Z,91.84
2018-03-22T21:06:45.017Z,90.26
2018-03-22T21:09:14.061Z,89.84
2018-03-22T21:11:43.127Z,89.31
2018-03-22T21:14:12.224Z,89.94
2018-03-22T21:16:41.357Z,89.48
2018-03-22T21:19:10.358Z,90.16
2018-03-22T21:21:39.553Z,89.31
2018-03-22T21:24:08.705Z,89.22
2018-03-22T21:26:38.019Z,89.12
2018-03-22T21:29:07.153Z,89.65
2018-03-22T21:31:36.433Z,90.74
2018-03-22T21:34:05.593Z,89.59
2018-03-22T21:36:34.735Z,89.62
2018-03-22T21:39:03.803Z,88.92
2018-03-22T21:41:34.453Z,89.78
2018-03-22T21:44:14.111Z,89.15
2018-03-22T21:46:43.319Z,89.29
2018-03-22T21:49:12.254Z,89.42
2018-03-22T21:51:41.684Z,88.73
2018-03-22T21:54:10.581Z,88.85
2018-03-22T21:56:39.747Z,88.80
2018-03-22T21:59:08.995Z,89.08
2018-03-22T22:01:38.241Z,89.06
2018-03-22T22:04:07.340Z,89.07
2018-03-22T22:06:36.592Z,90.08
2018-03-22T22:09:05.734Z,89.27
2018-03-22T22:11:34.729Z,89.52
2018-03-22T22:14:03.785Z,89.14
2018-03-22T22:16:32.732Z,88.99
2018-03-22T22:19:01.706Z,88.77
2018-03-22T22:21:30.945Z,89.45
2018-03-22T22:24:00.012Z,89.21
2018-03-22T22:26:29.201Z,89.48
2018-03-22T22:28:58.474Z,89.36
2018-03-22T22:31:27.597Z,89.03
2018-03-22T22:33:56.693Z,88.65
2018-03-22T22:36:26.074Z,89.69
2018-03-22T22:38:56.027Z,89.57
2018-03-22T22:41:25.104Z,90.21
2018-03-22T22:43:54.301Z,89.73
2018-03-22T22:46:23.461Z,89.03
2018-03-22T22:48:52.463Z,88.25
2018-03-22T22:51:21.598Z,88.69
2018-03-22T22:53:50.545Z,88.81
2018-03-22T22:56:19.626Z,89.03
2018-03-22T22:58:49.039Z,86.78
2018-03-22T23:01:18.286Z,86.75
2018-03-22T23:03:47.477Z,86.82
2018-03-22T23:06:16.576Z,87.07
2018-03-22T23:08:45.573Z,87.39
2018-03-22T23:11:14.640Z,87.74
2018-03-22T23:13:43.566Z,87.87
2018-03-22T23:16:12.755Z,87.94
2018-03-22T23:18:42.001Z,88.48
2018-03-22T23:21:22.068Z,88.46
2018-03-22T23:23:54.283Z,89.23
2018-03-22T23:26:23.509Z,88.50
2018-03-22T23:28:52.674Z,89.30
2018-03-22T23:31:21.880Z,88.99
2018-03-22T23:33:51.011Z,89.32
2018-03-22T23:36:19.974Z,89.96
2018-03-22T23:38:49.501Z,89.20
2018-03-22T23:41:18.603Z,89.97
2018-03-22T23:43:47.649Z,90.16
2018-03-22T23:46:16.896Z,89.96
2018-03-22T23:48:46.053Z,89.95
2018-03-22T23:51:14.995Z,90.51
2018-03-22T23:53:44.038Z,90.75
2018-03-22T23:56:13.279Z,90.36
2018-03-22T23:58:42.405Z,90.92
